Latest Coastal Weather Observations for Geelong Racecourse

IDV60701

Issued at 9:25 pm EDT Saturday 25 October 2014 (issued every 10 minutes, with the page automatically refreshed every 10 minutes)

About coastal observations | Map of coastal stations | Coastal observations for VIC | Marine services | Other Formats
Station Details ID: 087184 Name: GEELONG RACECOURSE Lat: -38.17 Lon: 144.38 Height: 12.9 m
Data from the previous 72 hours. | See also: Recent months at Geelong Racecourse
Date/Time
EDT
Temp

°C
Wind Pressure Rain
since 9am
mm
Weather Cloud Vis
km
Sea
Height
m
Swell
Dir
 
Speed
knots
Gust
knots
hPa Trend Height
m
Period
s
Dir
25/09:00pm 13.9 SSE 4 6 1016.5 - 0.0 - - - - - - -
25/08:30pm 13.7 SSE 5 8 1016.3 - 0.0 - - - - - - -
25/08:00pm 13.9 SSE 6 8 1016.2 - 0.0 - - - - - - -
25/07:30pm 14.4 S 8 10 1016.1 - 0.0 - - - - - - -
25/07:00pm 14.7 S 8 12 1016.0 - 0.0 - - - - - - -
25/06:30pm 14.7 S 9 13 1015.8 - 0.0 - - - - - - -
25/06:00pm 15.4 SSE 9 14 1015.9 - 0.0 - - - - - - -
25/05:30pm 15.6 S 9 14 1015.6 - 0.0 - - - - - - -
25/05:00pm 15.8 S 11 15 1015.5 - 0.0 - - - - - - -
25/04:30pm 16.0 SSE 10 17 1015.6 - 0.0 - - - - - - -
25/04:00pm 17.1 SSE 10 15 1015.5 - 0.0 - - - - - - -
25/03:30pm 16.9 SSE 10 14 1015.5 - 0.0 - - - - - - -
25/03:00pm 18.0 SSE 10 14 1015.7 - 0.0 - - - - - - -
25/02:30pm 18.0 S 9 12 1016.0 - 0.0 - - - - - - -
25/02:00pm 17.4 S 8 11 1016.3 - 0.0 - - - - - - -
25/01:30pm 17.1 SSE 5 8 1016.4 - 0.0 - - - - - - -
25/01:00pm 17.4 S 4 6 1016.7 - 0.0 - - - - - - -
25/12:30pm 16.6 S 5 8 1017.0 - 0.0 - - - - - - -
25/12:00pm 15.8 S 4 8 1017.5 - 0.0 - - - - - - -
25/11:30am 15.4 S 4 8 1017.6 - 0.0 - - - - - - -
25/11:00am 15.6 SE 5 8 1017.8 - 0.0 - - - - - - -
25/10:30am 15.6 S 4 6 1017.8 - 0.0 - - - - - - -
25/10:00am 15.1 SSE 6 8 1018.0 - 0.0 - - - - - - -
25/09:30am 14.6 S 5 8 1018.1 - 0.0 - - - - - - -
25/09:00am 13.7 S 6 8 1018.1 - 0.0 - - - - - - -
25/08:30am 14.0 S 6 9 1018.1 - 0.0 - - - - - - -
25/08:00am 13.8 S 4 6 1017.9 - 0.0 - - - - - - -
25/07:30am 13.5 S 4 7 1017.6 - 0.0 - - - - - - -
25/07:00am 13.3 S 6 8 1017.3 - 0.0 - - - - - - -
25/06:30am 13.9 S 3 4 1017.1 - 0.0 - - - - - - -
25/06:00am 13.7 WSW 1 2 1016.9 - 0.0 - - - - - - -
25/05:30am 13.8 SSW 1 2 1016.8 - 0.0 - - - - - - -
25/05:00am 13.8 S 3 4 1016.5 - 0.0 - - - - - - -
25/04:30am 13.9 WSW 3 4 1016.2 - 0.0 - - - - - - -
25/04:00am 14.0 WSW 3 5 1016.2 - 0.0 - - - - - - -
25/03:30am 14.0 WSW 7 10 1016.3 - 0.0 - - - - - - -
25/03:00am 14.6 WSW 4 6 1016.3 - 0.0 - - - - - - -
25/02:30am 14.6 W 3 4 1016.3 - 0.0 - - - - - - -
25/02:00am 14.7 WSW 5 8 1016.6 - 0.0 - - - - - - -
25/01:30am 14.6 W 8 10 1016.7 - 0.0 - - - - - - -
25/01:00am 14.7 W 7 10 1016.9 - 0.0 - - - - - - -
25/12:30am 14.6 W 7 10 1016.7 - 0.0 - - - - - - -
25/12:00am 14.5 WSW 6 10 1016.7 - 0.0 - - - - - - -
 
Date/Time
EDT
Temp

°C
Wind Pressure Rain
since 9am
mm
Weather Cloud Vis
km
Sea
Height
m
Swell
Dir
 
Speed
knots
Gust
knots
hPa Trend Height
m
Period
s
Dir
24/11:30pm 14.5 W 4 9 1016.4 - 0.0 - - - - - - -
24/11:00pm 14.8 W 5 9 1016.2 - 0.0 - - - - - - -
24/10:30pm 14.8 W 5 7 1016.0 - 0.0 - - - - - - -
24/10:00pm 14.9 W 7 10 1015.8 - 0.0 - - - - - - -
24/09:30pm 15.8 WNW 9 15 1015.0 - 0.0 - - - - - - -
24/09:00pm 15.8 W 10 14 1014.4 - 0.0 - - - - - - -
24/08:30pm 15.1 SSE 3 5 1013.7 - 0.0 - - - - - - -
24/08:00pm 15.6 S 7 9 1012.9 - 0.0 - - - - - - -
24/07:30pm 16.1 S 9 12 1012.4 - 0.0 - - - - - - -
24/07:00pm 16.0 S 10 14 1011.7 - 0.0 - - - - - - -
24/06:30pm 17.1 S 13 17 1011.3 - 0.0 - - - - - - -
24/06:00pm 20.0 S 12 15 1010.7 - 0.0 - - - - - - -
24/05:30pm 20.6 S 10 14 1010.4 - 0.0 - - - - - - -
24/05:00pm 21.1 S 11 14 1010.1 - 0.0 - - - - - - -
24/04:30pm 22.7 S 13 17 1009.8 - 0.0 - - - - - - -
24/04:21pm 24.6 SSE 11 15 1009.6 - 0.0 - - - - - - -
24/04:00pm 29.9 WSW 9 15 1009.5 - 0.0 - - - - - - -
24/03:30pm 29.4 W 9 15 1009.7 - 0.0 - - - - - - -
24/03:00pm 29.2 W 10 18 1009.9 - 0.0 - - - - - - -
24/02:30pm 29.3 W 11 16 1010.1 - 0.0 - - - - - - -
24/02:00pm 28.6 W 10 14 1010.3 - 0.0 - - - - - - -
24/01:30pm 27.6 W 8 13 1010.6 - 0.0 - - - - - - -
24/01:00pm 27.4 WNW 9 13 1010.6 - 0.0 - - - - - - -
24/12:30pm 26.4 NW 9 15 1010.8 - 0.0 - - - - - - -
24/12:00pm 25.9 WNW 8 12 1011.0 - 0.0 - - - - - - -
24/11:30am 24.5 NW 8 12 1011.4 - 0.0 - - - - - - -
24/11:00am 21.8 N 2 5 1011.7 - 0.0 - - - - - - -
24/10:30am 19.3 N 3 5 1011.7 - 0.0 - - - - - - -
24/10:00am 17.6 NNE 3 4 1011.9 - 0.0 - - - - - - -
24/09:30am 15.8 NNE 3 5 1011.8 - 0.0 - - - - - - -
24/09:00am 15.4 NE 3 5 1011.9 - 0.0 - - - - - - -
24/08:30am 15.0 NE 3 5 1012.3 - 0.0 - - - - - - -
24/08:00am 14.9 NE 2 3 1012.4 - 0.0 - - - - - - -
24/07:30am 14.7 SE 2 3 1012.2 - 0.0 - - - - - - -
24/07:00am 13.1 S 2 3 1012.3 - 0.0 - - - - - - -
24/06:30am 13.2 S 2 2 1012.3 - 0.0 - - - - - - -
24/06:00am 14.1 S 3 4 1012.2 - 0.0 - - - - - - -
24/05:30am 14.3 S 3 4 1012.4 - 0.0 - - - - - - -
24/05:00am 15.0 SSE 2 3 1012.4 - 0.0 - - - - - - -
24/04:30am 15.2 S 3 4 1012.6 - 0.0 - - - - - - -
24/04:00am 15.3 S 4 6 1012.8 - 0.0 - - - - - - -
24/03:30am 15.5 SSE 4 6 1013.0 - 0.0 - - - - - - -
24/03:00am 15.8 SE 6 9 1013.2 - 0.0 - - - - - - -
24/02:30am 16.0 SE 8 12 1013.4 - 0.0 - - - - - - -
24/02:00am 16.2 SE 6 10 1014.1 - 0.0 - - - - - - -
24/01:30am 16.2 SE 6 9 1014.7 - 0.0 - - - - - - -
24/01:00am 15.7 SSE 4 6 1015.2 - 0.0 - - - - - - -
24/12:30am 16.3 SE 5 13 1015.4 - 0.0 - - - - - - -
24/12:00am 15.4 S 4 6 1015.6 - 0.0 - - - - - - -
 
Date/Time
EDT
Temp

°C
Wind Pressure Rain
since 9am
mm
Weather Cloud Vis
km
Sea
Height
m
Swell
Dir
 
Speed
knots
Gust
knots
hPa Trend Height
m
Period
s
Dir
23/11:30pm 15.4 S 5 7 1016.1 - 0.0 - - - - - - -
23/11:00pm 15.6 S 5 8 1016.5 - 0.0 - - - - - - -
23/10:30pm 16.1 SSE 5 7 1016.6 - 0.0 - - - - - - -
23/10:00pm 16.5 SE 6 9 1016.8 - 0.0 - - - - - - -
23/09:30pm 16.7 SSE 5 9 1016.8 - 0.0 - - - - - - -
23/09:00pm 17.2 ESE 7 13 1016.8 - 0.0 - - - - - - -
23/08:30pm 16.2 S 5 7 1016.5 - 0.0 - - - - - - -
23/08:00pm 16.4 SSE 6 8 1016.4 - 0.0 - - - - - - -
23/07:30pm 17.0 SSE 6 10 1016.4 - 0.0 - - - - - - -
23/07:00pm 17.1 SE 8 12 1016.3 - 0.0 - - - - - - -
23/06:30pm 17.1 SSE 9 12 1016.4 - 0.0 - - - - - - -
23/06:00pm 17.2 SSE 9 14 1016.4 - 0.0 - - - - - - -
23/05:30pm 17.2 S 8 12 1016.7 - 0.0 - - - - - - -
23/05:00pm 16.6 S 9 12 1016.8 - 0.0 - - - - - - -
23/04:30pm 16.3 SSE 8 11 1017.0 - 0.0 - - - - - - -
23/04:00pm 16.3 S 9 13 1017.3 - 0.0 - - - - - - -
23/03:30pm 16.4 S 8 11 1017.8 - 0.0 - - - - - - -
23/03:00pm 16.8 SSE 6 9 1017.9 - 0.0 - - - - - - -
23/02:30pm 16.1 SSE 7 10 1018.4 - 0.0 - - - - - - -
23/02:00pm 16.0 SSE 6 10 1018.8 - 0.0 - - - - - - -
23/01:30pm 15.8 SE 6 10 1019.0 - 0.0 - - - - - - -
23/01:00pm 15.6 SSE 7 11 1019.2 - 0.0 - - - - - - -
23/12:30pm 15.6 S 7 10 1019.6 - 0.0 - - - - - - -
23/12:00pm 15.7 SSE 7 10 1020.0 - 0.0 - - - - - - -
23/11:30am 15.2 S 7 11 1020.2 - 0.0 - - - - - - -
23/11:00am 14.9 S 7 10 1020.3 - 0.0 - - - - - - -
23/10:30am 14.8 SSE 7 9 1020.5 - 0.0 - - - - - - -
23/10:00am 15.0 S 6 9 1020.8 - 0.0 - - - - - - -
23/09:30am 14.7 S 6 9 1020.7 - 0.0 - - - - - - -
23/09:00am 14.5 SSE 6 10 1020.7 - 0.2 - - - - - - -
23/08:30am 14.2 S 7 11 1020.5 - 0.2 - - - - - - -
23/08:00am 13.9 S 6 8 1020.6 - 0.2 - - - - - - -
23/07:30am 13.9 S 6 9 1020.5 - 0.2 - - - - - - -
23/07:00am 14.0 S 8 12 1020.1 - 0.2 - - - - - - -
23/06:30am 14.1 S 8 10 1019.9 - 0.2 - - - - - - -
23/06:00am 14.2 S 7 9 1019.4 - 0.2 - - - - - - -
23/05:30am 14.4 SSW 10 14 1019.0 - 0.2 - - - - - - -
23/05:00am 14.3 SSW 7 9 1019.0 - 0.2 - - - - - - -
23/04:30am 14.4 S 7 10 1019.0 - 0.2 - - - - - - -
23/04:00am 14.5 SSW 8 11 1019.1 - 0.2 - - - - - - -
23/03:30am 14.6 SSW 7 10 1019.1 - 0.2 - - - - - - -
23/03:00am 14.6 SSW 8 11 1019.1 - 0.2 - - - - - - -
23/02:30am 14.5 SSW 7 10 1019.2 - 0.2 - - - - - - -
23/02:00am 14.4 SSW 8 11 1019.1 - 0.2 - - - - - - -
23/01:30am 14.5 SSW 8 12 1019.3 - 0.2 - - - - - - -
23/01:00am 14.5 SW 7 10 1019.6 - 0.2 - - - - - - -
23/12:30am 14.2 SW 8 11 1019.3 - 0.2 - - - - - - -
23/12:00am 14.3 SW 9 11 1019.0 - 0.2 Recent precip. - - - - - -
 
Date/Time
EDT
Temp

°C
Wind Pressure Rain
since 9am
mm
Weather Cloud Vis
km
Sea
Height
m
Swell
Dir
 
Speed
knots
Gust
knots
hPa Trend Height
m
Period
s
Dir
22/11:30pm 14.7 SSW 6 9 1019.2 - 0.2 - - - - - - -
22/11:28pm 14.7 SSW 7 9 1019.2 - 0.2 - - - - - - -
22/11:00pm 15.0 SSE 8 11 1017.2 - 0.0 - - - - - - -
22/10:30pm 15.6 SSW 11 14 1018.9 - 0.0 - - - - - - -
22/10:00pm 15.9 SSW 9 11 1018.9 - 0.0 - - - - - - -
22/09:30pm 16.5 SSW 8 10 1018.5 - 0.0 - - - - - - -

Other Formats:

Comma delimited format used in spreadsheet applications
http://www.bom.gov.au/fwo/IDV60701/IDV60701.94857.axf

JavaScript Object Notation format (JSON) in row-major order
http://www.bom.gov.au/fwo/IDV60701/IDV60701.94857.json